Bates, Arkansas
Current Conditions -  °F | °C
As of 2:15 PM on Sunday 23 Nov 2014 (Local Time) from KRKR Reporting Station
Clear Clear  
Wind Chill: 71°   Ceiling: Unl
Heat Index: 71°   Visibility: 10mi
Dew Point: 54°   Wind: 16mph
Humidity: 55%   Direction: 190°S
Pressure: 29.29"   Gusts: 22mph
Location:  34.91°N, 94.39°W
Report Text: KRKR 232015Z AUTO 19014G19KT 10SM CLR 22/12 A2929 RMK AO2 T02180123
Loading
Personal Weather Stations






























Interactive Weather Map New forecast layout! Learn more

10-Day Weather Forecast

Advertisements
Track Severe Weather on mobile